createdAt,value
2018-04-25T00:01:11.917Z,11.20
2018-04-25T00:03:38.614Z,11.10
2018-04-25T00:06:06.052Z,11.10
2018-04-25T00:08:32.752Z,11.10
2018-04-25T00:10:59.471Z,11.10
2018-04-25T00:13:26.933Z,11.10
2018-04-25T00:15:54.395Z,11.00
2018-04-25T00:18:21.079Z,11.00
2018-04-25T00:20:47.749Z,11.00
2018-04-25T00:23:14.385Z,11.00
2018-04-25T00:25:41.102Z,11.00
2018-04-25T00:28:07.758Z,11.00
2018-04-25T00:30:34.414Z,10.90
2018-04-25T00:33:01.059Z,10.90
2018-04-25T00:35:27.754Z,10.90
2018-04-25T00:37:54.450Z,10.90
2018-04-25T00:40:21.135Z,10.90
2018-04-25T00:42:47.925Z,10.80
2018-04-25T00:45:14.684Z,10.80
2018-04-25T00:47:41.429Z,10.80
2018-04-25T00:50:08.244Z,10.80
2018-04-25T00:52:34.940Z,10.80
2018-04-25T00:55:02.451Z,10.70
2018-04-25T00:57:29.170Z,10.70
2018-04-25T00:59:55.897Z,10.70
2018-04-25T01:02:23.358Z,10.80
2018-04-25T01:04:50.812Z,10.80
2018-04-25T01:07:18.241Z,10.80
2018-04-25T01:09:44.985Z,10.80
2018-04-25T01:12:11.693Z,10.80
2018-04-25T01:14:38.510Z,10.80
2018-04-25T01:17:06.053Z,10.70
2018-04-25T01:19:32.820Z,10.70
2018-04-25T01:22:00.303Z,10.70
2018-04-25T01:24:27.107Z,10.70
2018-04-25T01:26:53.845Z,10.70
2018-04-25T01:29:23.528Z,10.70
2018-04-25T01:32:02.575Z,10.60
2018-04-25T01:34:34.842Z,10.60
2018-04-25T01:37:07.344Z,10.60
2018-04-25T01:39:39.814Z,10.60
2018-04-25T01:46:03.214Z,10.60
2018-04-25T02:01:51.305Z,10.50
2018-04-25T02:04:18.490Z,10.50
2018-04-25T02:06:44.974Z,10.50
2018-04-25T02:09:11.450Z,10.50
2018-04-25T02:11:37.922Z,10.40
2018-04-25T02:14:04.393Z,10.40
2018-04-25T02:16:31.629Z,10.30
2018-04-25T02:18:58.095Z,10.30
2018-04-25T02:21:25.304Z,10.40
2018-04-25T02:23:51.783Z,10.40
2018-04-25T02:26:18.248Z,10.40
2018-04-25T02:28:44.722Z,10.30
2018-04-25T02:31:11.184Z,10.30
2018-04-25T02:33:37.654Z,10.30
2018-04-25T02:36:04.131Z,10.40
2018-04-25T02:38:30.625Z,10.40
2018-04-25T02:40:57.851Z,10.30
2018-04-25T02:43:24.302Z,10.30
2018-04-25T02:45:50.780Z,10.30
2018-04-25T02:48:17.250Z,10.30
2018-04-25T02:50:43.718Z,10.30
2018-04-25T02:53:10.193Z,10.30
2018-04-25T02:55:36.655Z,10.30
2018-04-25T02:58:03.102Z,10.20
2018-04-25T03:00:29.585Z,10.30
2018-04-25T03:02:56.774Z,10.30
2018-04-25T03:05:23.215Z,10.30
2018-04-25T03:07:49.692Z,10.20
2018-04-25T03:10:16.161Z,10.30
2018-04-25T03:12:42.602Z,10.20
2018-04-25T03:15:09.065Z,10.20
2018-04-25T03:17:35.544Z,10.20
2018-04-25T03:20:02.020Z,10.20
2018-04-25T03:22:28.553Z,10.20
2018-04-25T03:24:55.000Z,10.10
2018-04-25T03:27:21.464Z,10.10
2018-04-25T03:29:47.924Z,10.00
2018-04-25T03:32:14.420Z,10.10
2018-04-25T03:34:40.873Z,10.10
2018-04-25T03:37:07.347Z,10.00
2018-04-25T03:39:33.827Z,10.00
2018-04-25T03:42:00.321Z,9.90
2018-04-25T03:44:26.809Z,9.90
2018-04-25T03:46:53.262Z,9.80
2018-04-25T03:49:19.724Z,9.70
2018-04-25T03:51:46.288Z,9.70
2018-04-25T03:54:12.740Z,9.60
2018-04-25T03:56:39.982Z,9.60
2018-04-25T03:59:07.236Z,9.60
2018-04-25T04:01:33.681Z,9.60
2018-04-25T04:04:00.878Z,9.80
2018-04-25T04:06:27.402Z,9.80
2018-04-25T04:08:53.866Z,9.80
2018-04-25T04:11:20.401Z,9.80
2018-04-25T04:13:46.892Z,9.80
2018-04-25T04:16:14.062Z,10.10
2018-04-25T04:18:40.533Z,10.10
2018-04-25T04:21:07.050Z,10.10
2018-04-25T04:23:33.499Z,10.20
2018-04-25T04:25:59.995Z,10.30
2018-04-25T04:28:27.252Z,10.50
2018-04-25T04:30:54.489Z,10.60
2018-04-25T04:33:21.000Z,10.60
2018-04-25T04:35:47.468Z,10.70
2018-04-25T04:38:13.931Z,10.70
2018-04-25T04:40:41.116Z,11.00
2018-04-25T04:43:07.599Z,11.00
2018-04-25T04:45:34.089Z,11.00
2018-04-25T04:48:00.557Z,11.10
2018-04-25T04:50:27.032Z,11.20
2018-04-25T04:52:54.259Z,11.40
2018-04-25T04:55:20.748Z,11.40
2018-04-25T04:57:47.268Z,11.50
2018-04-25T05:00:14.465Z,11.80
2018-04-25T05:02:40.965Z,11.80
2018-04-25T05:05:08.198Z,12.20
2018-04-25T05:07:34.645Z,12.10
2018-04-25T05:10:01.112Z,12.20
2018-04-25T05:12:27.621Z,12.30
2018-04-25T05:14:54.099Z,12.40
2018-04-25T05:17:21.419Z,12.60
2018-04-25T05:19:47.912Z,12.70
2018-04-25T05:22:14.353Z,12.90
2018-04-25T05:24:40.888Z,12.90
2018-04-25T05:27:07.300Z,13.10
2018-04-25T05:29:33.781Z,13.50
2018-04-25T05:32:00.248Z,13.70
2018-04-25T05:34:27.535Z,14.20
2018-04-25T05:36:54.000Z,14.10
2018-04-25T05:39:20.502Z,14.30
2018-04-25T05:41:47.711Z,14.90
2018-04-25T05:44:14.217Z,14.90
2018-04-25T05:46:40.667Z,15.00
2018-04-25T05:49:07.215Z,15.20
2018-04-25T05:51:33.704Z,15.60
2018-04-25T05:54:00.898Z,15.90
2018-04-25T05:56:27.413Z,15.80
2018-04-25T05:58:53.861Z,16.30
2018-04-25T06:01:20.334Z,16.80
2018-04-25T06:03:46.839Z,17.20
2018-04-25T06:06:13.293Z,17.40
2018-04-25T06:08:39.767Z,17.70
2018-04-25T06:11:06.252Z,17.90
2018-04-25T06:13:32.693Z,18.30
2018-04-25T06:15:59.193Z,18.70
2018-04-25T06:18:26.428Z,20.50
2018-04-25T06:20:52.959Z,20.40
2018-04-25T06:23:19.411Z,21.70
2018-04-25T06:25:45.895Z,22.30
2018-04-25T06:28:12.366Z,22.40
2018-04-25T06:30:38.822Z,22.40
2018-04-25T06:33:05.300Z,22.60
2018-04-25T06:35:31.790Z,23.30
2018-04-25T06:37:58.250Z,23.40
2018-04-25T06:40:24.721Z,23.20
2018-04-25T06:42:51.208Z,23.60
2018-04-25T06:45:17.647Z,24.20
2018-04-25T06:47:44.139Z,24.80
2018-04-25T06:50:10.682Z,24.90
2018-04-25T06:52:37.131Z,25.70
2018-04-25T06:55:03.607Z,26.50
2018-04-25T06:57:30.099Z,25.80
2018-04-25T06:59:56.548Z,26.60
2018-04-25T07:02:23.825Z,27.50
2018-04-25T07:04:50.249Z,27.50
2018-04-25T07:07:16.682Z,28.30
2018-04-25T07:09:43.168Z,28.50
2018-04-25T07:12:10.385Z,26.40
2018-04-25T07:14:36.993Z,26.30
2018-04-25T07:17:03.529Z,26.40
2018-04-25T07:19:30.029Z,27.50
2018-04-25T07:21:56.579Z,28.10
2018-04-25T07:24:23.068Z,28.80
2018-04-25T07:26:49.526Z,29.50
2018-04-25T07:29:16.024Z,29.40
2018-04-25T07:31:42.509Z,29.00
2018-04-25T07:34:08.977Z,29.50
2018-04-25T07:36:36.194Z,29.40
2018-04-25T07:39:03.312Z,29.40
2018-04-25T07:41:29.748Z,29.80
2018-04-25T07:43:56.205Z,30.00
2018-04-25T07:46:22.691Z,30.00
2018-04-25T07:48:49.916Z,31.50
2018-04-25T07:51:16.365Z,31.50
2018-04-25T07:53:43.579Z,30.60
2018-04-25T07:56:10.040Z,30.50
2018-04-25T07:58:36.493Z,30.80
2018-04-25T08:01:03.051Z,31.90
2018-04-25T08:03:29.544Z,31.80
2018-04-25T08:05:56.038Z,32.40
2018-04-25T08:08:23.273Z,32.50
2018-04-25T08:10:49.738Z,32.40
2018-04-25T08:13:29.167Z,31.90
2018-04-25T08:16:07.799Z,31.90
2018-04-25T08:18:47.217Z,33.10
2018-04-25T08:21:24.761Z,32.90
2018-04-25T08:23:51.393Z,31.50
2018-04-25T08:26:17.849Z,32.00
2018-04-25T08:28:44.337Z,32.60
2018-04-25T08:31:10.830Z,32.10
2018-04-25T08:33:37.353Z,33.10
2018-04-25T08:36:03.894Z,33.10
2018-04-25T08:38:30.364Z,33.60
2018-04-25T08:40:56.793Z,33.40
2018-04-25T08:43:23.289Z,33.10
2018-04-25T08:45:50.513Z,34.50
2018-04-25T08:48:16.973Z,34.50
2018-04-25T08:50:44.169Z,35.30
2018-04-25T08:53:10.711Z,35.30
2018-04-25T08:55:37.219Z,33.40
2018-04-25T08:58:04.453Z,34.00
2018-04-25T09:00:30.952Z,34.00
2018-04-25T09:02:57.533Z,35.40
2018-04-25T09:05:24.065Z,33.40
2018-04-25T09:07:50.540Z,34.10
2018-04-25T09:10:17.716Z,35.40
2018-04-25T09:12:44.160Z,35.30
2018-04-25T09:15:10.630Z,35.60
2018-04-25T09:17:37.145Z,34.70
2018-04-25T09:20:03.628Z,34.70
2018-04-25T09:22:30.877Z,36.60
2018-04-25T09:24:57.447Z,36.50
2018-04-25T09:27:23.970Z,36.60
2018-04-25T09:29:51.220Z,35.80
2018-04-25T09:32:18.414Z,32.30
2018-04-25T09:34:44.866Z,32.40
2018-04-25T09:37:11.355Z,35.10
2018-04-25T09:39:38.564Z,35.10
2018-04-25T09:42:05.090Z,35.10
2018-04-25T09:44:31.585Z,34.90
2018-04-25T09:46:58.793Z,33.60
2018-04-25T09:49:25.301Z,33.50
2018-04-25T09:51:51.924Z,34.20
2018-04-25T09:54:18.348Z,35.50
2018-04-25T09:56:44.799Z,36.60
2018-04-25T09:59:12.031Z,35.70
2018-04-25T10:01:38.476Z,35.80
2018-04-25T10:04:04.982Z,36.30
2018-04-25T10:06:32.195Z,34.50
2018-04-25T10:08:59.390Z,35.00
2018-04-25T10:11:25.895Z,35.10
2018-04-25T10:13:53.157Z,34.40
2018-04-25T10:16:19.631Z,34.40
2018-04-25T10:18:46.081Z,32.90
2018-04-25T10:21:12.767Z,35.10
2018-04-25T10:23:40.125Z,35.50
2018-04-25T10:26:07.325Z,35.20
2018-04-25T10:28:34.349Z,35.10
2018-04-25T10:31:00.898Z,34.30
2018-04-25T10:33:27.774Z,34.80
2018-04-25T10:35:54.255Z,34.50
2018-04-25T10:38:21.475Z,34.50
2018-04-25T10:40:48.682Z,33.70
2018-04-25T10:43:15.149Z,33.70
2018-04-25T10:45:41.630Z,32.90
2018-04-25T10:48:08.832Z,36.00
2018-04-25T10:50:42.187Z,36.00
2018-04-25T10:53:08.703Z,35.00
2018-04-25T10:55:35.175Z,34.80
2018-04-25T10:58:02.395Z,33.80
2018-04-25T11:00:28.869Z,33.70
2018-04-25T11:02:56.068Z,33.30
2018-04-25T11:05:22.660Z,33.30
2018-04-25T11:07:49.894Z,33.80
2018-04-25T11:10:16.376Z,33.80
2018-04-25T11:12:42.910Z,32.00
2018-04-25T11:15:09.433Z,33.70
2018-04-25T11:17:36.634Z,33.20
2018-04-25T11:20:03.094Z,33.00
2018-04-25T11:22:29.564Z,32.20
2018-04-25T11:24:56.789Z,31.90
2018-04-25T11:27:23.296Z,31.90
2018-04-25T11:29:49.801Z,34.00
2018-04-25T11:32:16.275Z,32.10
2018-04-25T11:34:42.764Z,32.60
2018-04-25T11:37:10.074Z,31.30
2018-04-25T11:39:36.543Z,31.20
2018-04-25T11:42:03.071Z,30.50
2018-04-25T11:44:29.577Z,30.20
2018-04-25T11:46:56.011Z,30.10
2018-04-25T11:49:22.521Z,29.20
2018-04-25T11:51:49.753Z,29.50
2018-04-25T11:54:16.193Z,29.40
2018-04-25T11:56:42.748Z,28.90
2018-04-25T11:59:10.001Z,28.40
2018-04-25T12:01:37.211Z,28.30
2018-04-25T12:04:03.760Z,28.30
2018-04-25T12:06:30.282Z,28.40
2018-04-25T12:08:56.746Z,28.20
2018-04-25T12:11:23.266Z,29.70
2018-04-25T12:13:49.814Z,28.80
2018-04-25T12:16:16.330Z,28.90
2018-04-25T12:18:42.822Z,30.20
2018-04-25T12:21:09.275Z,29.20
2018-04-25T12:23:36.514Z,28.10
2018-04-25T12:26:02.974Z,28.10
2018-04-25T12:28:30.199Z,28.80
2018-04-25T12:30:56.718Z,28.70
2018-04-25T12:33:23.220Z,28.70
2018-04-25T12:35:49.742Z,28.40
2018-04-25T12:38:16.221Z,29.40
2018-04-25T12:40:42.716Z,29.30
2018-04-25T12:43:09.923Z,28.40
2018-04-25T12:45:36.403Z,28.30
2018-04-25T12:48:03.674Z,28.80
2018-04-25T12:50:30.886Z,28.00
2018-04-25T12:52:57.363Z,28.00
2018-04-25T12:55:24.584Z,29.10
2018-04-25T12:57:51.093Z,29.10
2018-04-25T13:00:17.615Z,28.40
2018-04-25T13:02:44.144Z,28.20
2018-04-25T13:05:11.342Z,28.00
2018-04-25T13:07:37.822Z,28.00
2018-04-25T13:10:05.092Z,28.00
2018-04-25T13:12:32.297Z,28.80
2018-04-25T13:14:58.872Z,28.80
2018-04-25T13:17:26.151Z,27.20
2018-04-25T13:19:53.370Z,27.60
2018-04-25T13:22:19.827Z,27.60
2018-04-25T13:24:47.130Z,27.40
2018-04-25T13:27:13.620Z,27.40
2018-04-25T13:29:40.824Z,27.90
2018-04-25T13:32:07.337Z,27.80
2018-04-25T13:34:33.817Z,27.50
2018-04-25T13:37:00.292Z,27.80
2018-04-25T13:39:27.568Z,27.20
2018-04-25T13:41:54.034Z,27.20
2018-04-25T13:44:20.490Z,27.40
2018-04-25T13:46:47.038Z,26.80
2018-04-25T13:49:13.473Z,26.80
2018-04-25T13:51:39.934Z,27.30
2018-04-25T13:54:06.425Z,27.50
2018-04-25T13:56:32.897Z,28.20
2018-04-25T13:58:59.388Z,28.10
2018-04-25T14:01:25.850Z,27.80
2018-04-25T14:03:53.071Z,27.80
2018-04-25T14:06:19.570Z,27.70
2018-04-25T14:08:46.119Z,28.10
2018-04-25T14:11:12.657Z,28.10
2018-04-25T14:13:39.103Z,28.40
2018-04-25T14:16:06.392Z,28.00
2018-04-25T14:18:32.845Z,28.00
2018-04-25T14:20:59.319Z,27.50
2018-04-25T14:23:25.812Z,27.60
2018-04-25T14:25:52.273Z,27.50
2018-04-25T14:28:18.735Z,27.60
2018-04-25T14:30:45.212Z,26.90
2018-04-25T14:33:11.677Z,27.00
2018-04-25T14:35:38.261Z,26.90
2018-04-25T14:38:05.541Z,26.90
2018-04-25T14:40:31.995Z,26.90
2018-04-25T14:42:58.477Z,26.90
2018-04-25T14:45:24.976Z,27.20
2018-04-25T14:47:51.461Z,27.10
2018-04-25T14:50:17.939Z,26.80
2018-04-25T14:52:44.412Z,26.70
2018-04-25T14:55:10.875Z,26.80
2018-04-25T14:57:37.326Z,27.20
2018-04-25T15:00:04.565Z,27.30
2018-04-25T15:02:31.062Z,27.30
2018-04-25T15:04:57.533Z,27.10
2018-04-25T15:07:24.035Z,27.00
2018-04-25T15:09:50.524Z,26.80
2018-04-25T15:12:17.101Z,26.80
2018-04-25T15:14:43.563Z,27.00
2018-04-25T15:17:10.037Z,26.80
2018-04-25T15:19:36.494Z,26.90
2018-04-25T15:22:03.031Z,26.70
2018-04-25T15:24:30.261Z,26.70
2018-04-25T15:26:56.766Z,26.60
2018-04-25T15:29:23.255Z,27.00
2018-04-25T15:31:49.704Z,26.90
2018-04-25T15:34:16.921Z,26.80
2018-04-25T15:36:43.412Z,26.70
2018-04-25T15:39:10.690Z,26.80
2018-04-25T15:41:37.196Z,26.80
2018-04-25T15:44:04.403Z,26.40
2018-04-25T15:46:30.877Z,26.40
2018-04-25T15:48:57.404Z,26.40
2018-04-25T15:51:23.889Z,26.50
2018-04-25T15:53:57.352Z,26.30
2018-04-25T15:56:23.828Z,26.10
2018-04-25T15:58:50.281Z,26.10
2018-04-25T16:01:16.703Z,26.20
2018-04-25T16:03:43.208Z,26.20
2018-04-25T16:06:09.683Z,26.20
2018-04-25T16:08:36.157Z,26.10
2018-04-25T16:11:02.746Z,26.10
2018-04-25T16:13:29.149Z,26.10
2018-04-25T16:15:56.378Z,26.00
2018-04-25T16:18:22.896Z,26.00
2018-04-25T16:20:49.366Z,26.10
2018-04-25T16:23:15.837Z,26.00
2018-04-25T16:25:42.376Z,25.90
2018-04-25T16:28:09.593Z,25.80
2018-04-25T16:30:36.072Z,25.80
2018-04-25T16:33:03.330Z,25.80
2018-04-25T16:35:30.512Z,25.80
2018-04-25T16:37:56.956Z,25.70
2018-04-25T16:40:23.460Z,25.70
2018-04-25T16:42:50.676Z,25.50
2018-04-25T16:45:17.120Z,25.50
2018-04-25T16:47:43.623Z,25.60
2018-04-25T16:50:10.121Z,25.50
2018-04-25T16:52:36.602Z,25.40
2018-04-25T16:55:03.101Z,25.40
2018-04-25T16:57:29.572Z,25.40
2018-04-25T16:59:56.080Z,25.20
2018-04-25T17:02:23.369Z,25.10
2018-04-25T17:04:49.885Z,25.00
2018-04-25T17:07:17.068Z,24.90
2018-04-25T17:09:43.591Z,24.80
2018-04-25T17:12:10.077Z,24.80
2018-04-25T17:14:37.287Z,24.60
2018-04-25T17:17:04.544Z,24.50
2018-04-25T17:19:31.736Z,24.40
2018-04-25T17:21:58.181Z,24.40
2018-04-25T17:24:24.682Z,24.40
2018-04-25T17:26:51.211Z,24.40
2018-04-25T17:29:18.531Z,24.30
2018-04-25T17:31:45.046Z,24.30
2018-04-25T17:34:11.533Z,24.30
2018-04-25T17:36:38.754Z,24.00
2018-04-25T17:39:05.338Z,24.00
2018-04-25T17:41:32.611Z,23.90
2018-04-25T17:43:59.074Z,23.90
2018-04-25T17:46:25.582Z,23.80
2018-04-25T17:48:52.032Z,23.70
2018-04-25T17:51:18.553Z,23.60
2018-04-25T17:53:45.822Z,23.60
2018-04-25T17:56:12.330Z,23.60
2018-04-25T17:58:39.580Z,23.40
2018-04-25T18:01:06.081Z,23.40
2018-04-25T18:03:32.563Z,23.30
2018-04-25T18:05:59.822Z,23.10
2018-04-25T18:08:27.042Z,23.00
2018-04-25T18:10:53.540Z,23.00
2018-04-25T18:13:20.034Z,23.00
2018-04-25T18:15:46.495Z,22.90
2018-04-25T18:18:13.690Z,22.60
2018-04-25T18:20:40.136Z,22.60
2018-04-25T18:23:06.652Z,22.40
2018-04-25T18:25:33.232Z,22.30
2018-04-25T18:27:59.730Z,22.10
2018-04-25T18:30:26.268Z,22.00
2018-04-25T18:32:52.756Z,22.00
2018-04-25T18:35:20.022Z,22.10
2018-04-25T18:37:47.287Z,22.00
2018-04-25T18:40:15.542Z,21.90
2018-04-25T18:42:43.931Z,21.80
2018-04-25T18:45:10.415Z,21.40
2018-04-25T18:47:36.917Z,21.10
2018-04-25T18:50:03.399Z,20.80
2018-04-25T18:52:29.885Z,20.70
2018-04-25T18:54:56.376Z,20.50
2018-04-25T18:57:23.289Z,20.60
2018-04-25T18:59:49.826Z,20.60
2018-04-25T19:02:16.354Z,20.50
2018-04-25T19:04:43.796Z,20.40
2018-04-25T19:07:10.257Z,20.10
2018-04-25T19:09:36.737Z,19.80
2018-04-25T19:12:03.255Z,19.80
2018-04-25T19:14:30.546Z,19.50
2018-04-25T19:16:57.072Z,19.50
2018-04-25T19:19:23.550Z,19.30
2018-04-25T19:21:50.025Z,19.20
2018-04-25T19:24:17.330Z,18.90
2018-04-25T19:26:43.883Z,18.90
2018-04-25T19:29:10.419Z,19.00
2018-04-25T19:31:36.964Z,18.80
2018-04-25T19:34:04.200Z,18.70
2018-04-25T19:36:30.751Z,18.70
2018-04-25T19:38:57.304Z,18.60
2018-04-25T19:41:23.912Z,18.40
2018-04-25T19:43:50.466Z,18.20
2018-04-25T19:46:16.929Z,18.20
2018-04-25T19:48:43.421Z,18.10
2018-04-25T19:51:09.968Z,17.90
2018-04-25T19:53:37.451Z,17.90
2018-04-25T19:56:03.909Z,18.00
2018-04-25T19:58:30.433Z,17.80
2018-04-25T20:00:56.953Z,17.80
2018-04-25T20:03:23.463Z,17.80
2018-04-25T20:05:50.274Z,17.70
2018-04-25T20:08:16.804Z,17.50
2018-04-25T20:10:43.440Z,17.50
2018-04-25T20:13:10.017Z,17.40
2018-04-25T20:15:37.302Z,17.30
2018-04-25T20:18:03.809Z,17.30
2018-04-25T20:20:30.320Z,17.10
2018-04-25T20:22:56.819Z,17.10
2018-04-25T20:25:23.280Z,17.10
2018-04-25T20:27:49.844Z,17.10
2018-04-25T20:30:16.317Z,17.00
2018-04-25T20:32:43.536Z,17.30
2018-04-25T20:35:10.028Z,17.30
2018-04-25T20:37:36.573Z,17.50
2018-04-25T20:40:03.071Z,17.60
2018-04-25T20:42:36.536Z,17.80
2018-04-25T20:45:03.059Z,17.80
2018-04-25T20:47:29.646Z,18.00
2018-04-25T20:49:56.261Z,18.10
2018-04-25T20:52:22.759Z,18.10
2018-04-25T20:54:49.227Z,18.20
2018-04-25T20:57:15.775Z,18.30
2018-04-25T20:59:42.256Z,18.10
2018-04-25T21:02:09.480Z,17.90
2018-04-25T21:04:35.978Z,17.80
2018-04-25T21:07:02.534Z,17.70
2018-04-25T21:09:29.012Z,17.90
2018-04-25T21:11:55.550Z,17.70
2018-04-25T21:14:22.004Z,17.60
2018-04-25T21:16:48.490Z,17.60
2018-04-25T21:19:14.990Z,17.40
2018-04-25T21:21:42.169Z,17.30
2018-04-25T21:24:08.626Z,17.20
2018-04-25T21:26:35.133Z,17.20
2018-04-25T21:29:01.604Z,17.20
2018-04-25T21:31:28.145Z,17.10
2018-04-25T21:33:54.652Z,17.00
2018-04-25T21:36:21.159Z,16.80
2018-04-25T21:38:48.383Z,16.60
2018-04-25T21:41:14.879Z,16.60
2018-04-25T21:43:42.085Z,16.60
2018-04-25T21:46:09.271Z,16.40
2018-04-25T21:48:36.577Z,16.40
2018-04-25T21:51:03.050Z,16.40
2018-04-25T21:53:29.513Z,16.30
2018-04-25T21:55:56.747Z,16.10
2018-04-25T21:58:23.259Z,16.10
2018-04-25T22:00:49.721Z,16.10
2018-04-25T22:03:16.209Z,16.00
2018-04-25T22:05:42.712Z,16.00
2018-04-25T22:08:09.207Z,15.90
2018-04-25T22:10:35.749Z,15.80
2018-04-25T22:13:02.301Z,15.90
2018-04-25T22:15:28.804Z,15.90
2018-04-25T22:17:55.312Z,15.80
2018-04-25T22:20:22.600Z,15.50
2018-04-25T22:22:49.090Z,15.50
2018-04-25T22:25:15.580Z,15.80
2018-04-25T22:27:42.064Z,15.70
2018-04-25T22:30:08.544Z,15.50
2018-04-25T22:32:35.060Z,15.40
2018-04-25T22:35:02.315Z,15.40
2018-04-25T22:37:28.755Z,15.40
2018-04-25T22:39:55.237Z,15.30
2018-04-25T22:42:21.721Z,15.40
2018-04-25T22:44:48.195Z,15.40
2018-04-25T22:47:14.673Z,15.20
2018-04-25T22:49:41.206Z,15.10
2018-04-25T22:52:08.337Z,15.00
2018-04-25T22:54:34.864Z,15.00
2018-04-25T22:57:01.367Z,15.00
2018-04-25T22:59:27.828Z,15.00
2018-04-25T23:01:55.069Z,14.90
2018-04-25T23:04:21.538Z,14.90
2018-04-25T23:06:48.003Z,14.80
2018-04-25T23:09:14.529Z,14.70
2018-04-25T23:11:41.014Z,14.70
2018-04-25T23:14:07.491Z,14.80
2018-04-25T23:16:33.984Z,14.80
2018-04-25T23:19:00.478Z,14.80
2018-04-25T23:21:26.977Z,14.70
2018-04-25T23:23:53.454Z,14.70
2018-04-25T23:26:19.927Z,14.60
2018-04-25T23:28:46.385Z,14.50
2018-04-25T23:31:12.852Z,14.60
2018-04-25T23:33:39.340Z,14.60
2018-04-25T23:36:05.823Z,14.70
2018-04-25T23:38:33.090Z,15.00
2018-04-25T23:41:00.350Z,14.90
2018-04-25T23:43:26.814Z,14.90
2018-04-25T23:45:53.297Z,14.90
2018-04-25T23:48:20.514Z,14.90
2018-04-25T23:50:46.977Z,14.90
2018-04-25T23:53:13.546Z,14.90
2018-04-25T23:55:40.726Z,14.90
2018-04-25T23:58:07.187Z,14.90
